sensor_id;sensor_type;location;lat;lon;timestamp;P1;durP1;ratioP1;P2;durP2;ratioP2
4307;SDS011;2167;53.448;9.984;2023-08-30T00:00:45;4.37;;;3.10;;
4307;SDS011;2167;53.448;9.984;2023-08-30T00:03:12;6.57;;;3.80;;
4307;SDS011;2167;53.448;9.984;2023-08-30T00:05:48;5.03;;;3.50;;
4307;SDS011;2167;53.448;9.984;2023-08-30T00:08:14;3.80;;;3.40;;
4307;SDS011;2167;53.448;9.984;2023-08-30T00:10:47;5.30;;;3.80;;
4307;SDS011;2167;53.448;9.984;2023-08-30T00:13:13;4.70;;;2.77;;
4307;SDS011;2167;53.448;9.984;2023-08-30T00:15:39;3.27;;;2.50;;
4307;SDS011;2167;53.448;9.984;2023-08-30T00:18:05;2.80;;;2.50;;
4307;SDS011;2167;53.448;9.984;2023-08-30T00:20:31;3.30;;;2.60;;
4307;SDS011;2167;53.448;9.984;2023-08-30T00:22:57;2.30;;;1.67;;
4307;SDS011;2167;53.448;9.984;2023-08-30T00:25:23;8.27;;;2.70;;
4307;SDS011;2167;53.448;9.984;2023-08-30T00:27:49;1.87;;;1.70;;
4307;SDS011;2167;53.448;9.984;2023-08-30T00:30:15;3.97;;;1.53;;
4307;SDS011;2167;53.448;9.984;2023-08-30T00:32:41;2.27;;;1.93;;
4307;SDS011;2167;53.448;9.984;2023-08-30T00:35:07;3.57;;;1.97;;
4307;SDS011;2167;53.448;9.984;2023-08-30T00:37:33;3.00;;;2.10;;
4307;SDS011;2167;53.448;9.984;2023-08-30T00:39:59;1.63;;;1.53;;
4307;SDS011;2167;53.448;9.984;2023-08-30T00:42:25;2.47;;;2.27;;
4307;SDS011;2167;53.448;9.984;2023-08-30T00:44:52;2.40;;;1.80;;
4307;SDS011;2167;53.448;9.984;2023-08-30T00:47:18;2.53;;;1.93;;
4307;SDS011;2167;53.448;9.984;2023-08-30T00:49:44;4.70;;;1.60;;
4307;SDS011;2167;53.448;9.984;2023-08-30T00:52:10;2.20;;;2.00;;
4307;SDS011;2167;53.448;9.984;2023-08-30T00:54:42;4.23;;;1.90;;
4307;SDS011;2167;53.448;9.984;2023-08-30T00:57:08;1.83;;;1.70;;
4307;SDS011;2167;53.448;9.984;2023-08-30T00:59:35;3.20;;;1.70;;
4307;SDS011;2167;53.448;9.984;2023-08-30T01:02:01;4.27;;;1.90;;
4307;SDS011;2167;53.448;9.984;2023-08-30T01:04:27;3.50;;;1.50;;
4307;SDS011;2167;53.448;9.984;2023-08-30T01:06:53;1.60;;;1.50;;
4307;SDS011;2167;53.448;9.984;2023-08-30T01:09:19;3.07;;;1.70;;
4307;SDS011;2167;53.448;9.984;2023-08-30T01:17:01;4.00;;;2.17;;
4307;SDS011;2167;53.448;9.984;2023-08-30T01:19:36;2.03;;;1.80;;
4307;SDS011;2167;53.448;9.984;2023-08-30T01:22:19;1.87;;;1.50;;
4307;SDS011;2167;53.448;9.984;2023-08-30T01:27:45;2.50;;;2.03;;
4307;SDS011;2167;53.448;9.984;2023-08-30T01:30:11;4.83;;;2.30;;
4307;SDS011;2167;53.448;9.984;2023-08-30T01:32:37;2.93;;;2.00;;
4307;SDS011;2167;53.448;9.984;2023-08-30T01:35:04;2.27;;;1.63;;
4307;SDS011;2167;53.448;9.984;2023-08-30T01:37:31;3.50;;;2.23;;
4307;SDS011;2167;53.448;9.984;2023-08-30T01:39:58;3.00;;;1.83;;
4307;SDS011;2167;53.448;9.984;2023-08-30T01:42:25;2.97;;;2.30;;
4307;SDS011;2167;53.448;9.984;2023-08-30T01:44:55;5.90;;;2.30;;
4307;SDS011;2167;53.448;9.984;2023-08-30T01:47:26;2.40;;;2.20;;
4307;SDS011;2167;53.448;9.984;2023-08-30T01:49:53;4.47;;;2.00;;
4307;SDS011;2167;53.448;9.984;2023-08-30T01:52:19;1.93;;;1.70;;
4307;SDS011;2167;53.448;9.984;2023-08-30T01:54:52;2.40;;;1.50;;
4307;SDS011;2167;53.448;9.984;2023-08-30T01:57:21;4.63;;;1.70;;
4307;SDS011;2167;53.448;9.984;2023-08-30T01:59:47;2.50;;;1.50;;
4307;SDS011;2167;53.448;9.984;2023-08-30T02:02:13;1.80;;;1.57;;
4307;SDS011;2167;53.448;9.984;2023-08-30T02:04:39;5.80;;;2.33;;
4307;SDS011;2167;53.448;9.984;2023-08-30T02:07:07;2.03;;;1.90;;
4307;SDS011;2167;53.448;9.984;2023-08-30T02:12:04;2.20;;;1.60;;
4307;SDS011;2167;53.448;9.984;2023-08-30T02:14:30;2.33;;;1.80;;
4307;SDS011;2167;53.448;9.984;2023-08-30T02:16:57;2.37;;;2.13;;
4307;SDS011;2167;53.448;9.984;2023-08-30T02:19:24;3.13;;;2.00;;
4307;SDS011;2167;53.448;9.984;2023-08-30T02:21:50;2.07;;;1.97;;
4307;SDS011;2167;53.448;9.984;2023-08-30T02:24:16;2.23;;;2.03;;
4307;SDS011;2167;53.448;9.984;2023-08-30T02:26:42;2.33;;;2.10;;
4307;SDS011;2167;53.448;9.984;2023-08-30T02:29:07;3.07;;;1.93;;
4307;SDS011;2167;53.448;9.984;2023-08-30T02:31:34;2.03;;;1.80;;
4307;SDS011;2167;53.448;9.984;2023-08-30T02:34:01;4.50;;;2.90;;
4307;SDS011;2167;53.448;9.984;2023-08-30T02:36:27;3.50;;;1.80;;
4307;SDS011;2167;53.448;9.984;2023-08-30T02:38:53;2.83;;;2.53;;
4307;SDS011;2167;53.448;9.984;2023-08-30T02:41:19;3.60;;;2.80;;
4307;SDS011;2167;53.448;9.984;2023-08-30T02:43:45;5.10;;;2.57;;
4307;SDS011;2167;53.448;9.984;2023-08-30T02:46:11;3.23;;;2.60;;
4307;SDS011;2167;53.448;9.984;2023-08-30T02:48:37;3.03;;;2.67;;
4307;SDS011;2167;53.448;9.984;2023-08-30T02:51:03;3.63;;;2.60;;
4307;SDS011;2167;53.448;9.984;2023-08-30T02:53:29;4.67;;;2.73;;
4307;SDS011;2167;53.448;9.984;2023-08-30T02:55:55;2.90;;;2.60;;
4307;SDS011;2167;53.448;9.984;2023-08-30T02:58:21;4.30;;;3.20;;
4307;SDS011;2167;53.448;9.984;2023-08-30T03:00:47;3.53;;;2.87;;
4307;SDS011;2167;53.448;9.984;2023-08-30T03:03:13;3.70;;;3.30;;
4307;SDS011;2167;53.448;9.984;2023-08-30T03:05:39;4.10;;;3.33;;
4307;SDS011;2167;53.448;9.984;2023-08-30T03:08:05;4.37;;;2.80;;
4307;SDS011;2167;53.448;9.984;2023-08-30T03:10:31;4.13;;;3.00;;
4307;SDS011;2167;53.448;9.984;2023-08-30T03:12:57;3.40;;;2.83;;
4307;SDS011;2167;53.448;9.984;2023-08-30T03:15:24;4.17;;;2.87;;
4307;SDS011;2167;53.448;9.984;2023-08-30T03:17:50;4.13;;;3.30;;
4307;SDS011;2167;53.448;9.984;2023-08-30T03:20:15;5.03;;;3.40;;
4307;SDS011;2167;53.448;9.984;2023-08-30T03:22:41;4.20;;;2.97;;
4307;SDS011;2167;53.448;9.984;2023-08-30T03:25:07;7.23;;;3.40;;
4307;SDS011;2167;53.448;9.984;2023-08-30T03:27:34;4.20;;;2.90;;
4307;SDS011;2167;53.448;9.984;2023-08-30T03:30:00;3.03;;;2.70;;
4307;SDS011;2167;53.448;9.984;2023-08-30T03:32:26;4.43;;;2.93;;
4307;SDS011;2167;53.448;9.984;2023-08-30T03:34:52;3.70;;;3.37;;
4307;SDS011;2167;53.448;9.984;2023-08-30T03:37:18;3.80;;;3.37;;
4307;SDS011;2167;53.448;9.984;2023-08-30T03:39:47;4.50;;;3.10;;
4307;SDS011;2167;53.448;9.984;2023-08-30T03:42:13;4.57;;;3.57;;
4307;SDS011;2167;53.448;9.984;2023-08-30T03:44:42;4.47;;;3.50;;
4307;SDS011;2167;53.448;9.984;2023-08-30T03:47:08;6.03;;;4.33;;
4307;SDS011;2167;53.448;9.984;2023-08-30T03:49:34;5.80;;;3.47;;
4307;SDS011;2167;53.448;9.984;2023-08-30T03:52:00;5.07;;;4.23;;
4307;SDS011;2167;53.448;9.984;2023-08-30T03:54:26;6.27;;;4.60;;
4307;SDS011;2167;53.448;9.984;2023-08-30T03:56:52;5.23;;;4.00;;
4307;SDS011;2167;53.448;9.984;2023-08-30T03:59:18;5.40;;;4.30;;
4307;SDS011;2167;53.448;9.984;2023-08-30T04:01:44;5.40;;;4.20;;
4307;SDS011;2167;53.448;9.984;2023-08-30T04:04:11;6.53;;;4.13;;
4307;SDS011;2167;53.448;9.984;2023-08-30T04:06:37;4.77;;;3.37;;
4307;SDS011;2167;53.448;9.984;2023-08-30T04:09:03;6.60;;;3.90;;
4307;SDS011;2167;53.448;9.984;2023-08-30T04:11:29;7.07;;;4.70;;
4307;SDS011;2167;53.448;9.984;2023-08-30T04:13:55;6.23;;;3.90;;
4307;SDS011;2167;53.448;9.984;2023-08-30T04:16:21;6.20;;;4.53;;
4307;SDS011;2167;53.448;9.984;2023-08-30T04:18:47;6.30;;;4.60;;
4307;SDS011;2167;53.448;9.984;2023-08-30T04:21:12;5.60;;;4.40;;
4307;SDS011;2167;53.448;9.984;2023-08-30T04:23:41;6.13;;;4.27;;
4307;SDS011;2167;53.448;9.984;2023-08-30T04:26:07;7.37;;;5.17;;
4307;SDS011;2167;53.448;9.984;2023-08-30T04:28:33;7.37;;;5.07;;
4307;SDS011;2167;53.448;9.984;2023-08-30T04:30:59;7.60;;;5.73;;
4307;SDS011;2167;53.448;9.984;2023-08-30T04:33:25;5.60;;;4.03;;
4307;SDS011;2167;53.448;9.984;2023-08-30T04:35:51;9.70;;;5.90;;
4307;SDS011;2167;53.448;9.984;2023-08-30T04:38:17;8.57;;;4.97;;
4307;SDS011;2167;53.448;9.984;2023-08-30T04:40:44;8.50;;;5.70;;
4307;SDS011;2167;53.448;9.984;2023-08-30T04:43:10;9.20;;;5.13;;
4307;SDS011;2167;53.448;9.984;2023-08-30T04:45:36;8.83;;;4.93;;
4307;SDS011;2167;53.448;9.984;2023-08-30T04:48:03;8.33;;;6.20;;
4307;SDS011;2167;53.448;9.984;2023-08-30T04:50:29;7.20;;;4.73;;
4307;SDS011;2167;53.448;9.984;2023-08-30T04:52:55;8.77;;;5.57;;
4307;SDS011;2167;53.448;9.984;2023-08-30T04:55:23;8.87;;;5.53;;
4307;SDS011;2167;53.448;9.984;2023-08-30T04:57:49;8.90;;;6.80;;
4307;SDS011;2167;53.448;9.984;2023-08-30T05:00:15;9.70;;;5.80;;
4307;SDS011;2167;53.448;9.984;2023-08-30T05:02:41;10.20;;;6.07;;
4307;SDS011;2167;53.448;9.984;2023-08-30T05:05:08;6.43;;;4.77;;
4307;SDS011;2167;53.448;9.984;2023-08-30T05:07:34;7.23;;;5.63;;
4307;SDS011;2167;53.448;9.984;2023-08-30T05:10:01;7.80;;;5.97;;
4307;SDS011;2167;53.448;9.984;2023-08-30T05:12:27;7.77;;;5.40;;
4307;SDS011;2167;53.448;9.984;2023-08-30T05:14:53;9.20;;;5.80;;
4307;SDS011;2167;53.448;9.984;2023-08-30T05:17:19;10.40;;;6.03;;
4307;SDS011;2167;53.448;9.984;2023-08-30T05:19:45;9.70;;;6.23;;
4307;SDS011;2167;53.448;9.984;2023-08-30T05:22:11;10.23;;;5.77;;
4307;SDS011;2167;53.448;9.984;2023-08-30T05:24:37;7.77;;;5.13;;
4307;SDS011;2167;53.448;9.984;2023-08-30T05:27:03;7.87;;;5.20;;
4307;SDS011;2167;53.448;9.984;2023-08-30T05:29:29;7.57;;;5.47;;
4307;SDS011;2167;53.448;9.984;2023-08-30T05:31:55;6.87;;;5.00;;
4307;SDS011;2167;53.448;9.984;2023-08-30T05:34:21;10.90;;;5.77;;
4307;SDS011;2167;53.448;9.984;2023-08-30T05:36:48;11.60;;;5.77;;
4307;SDS011;2167;53.448;9.984;2023-08-30T05:39:14;8.90;;;4.83;;
4307;SDS011;2167;53.448;9.984;2023-08-30T05:41:40;7.60;;;5.47;;
4307;SDS011;2167;53.448;9.984;2023-08-30T05:44:06;9.80;;;6.13;;
4307;SDS011;2167;53.448;9.984;2023-08-30T05:46:33;12.57;;;4.97;;
4307;SDS011;2167;53.448;9.984;2023-08-30T05:48:59;6.33;;;4.90;;
4307;SDS011;2167;53.448;9.984;2023-08-30T05:51:27;7.03;;;5.30;;
4307;SDS011;2167;53.448;9.984;2023-08-30T05:53:53;9.03;;;5.40;;
4307;SDS011;2167;53.448;9.984;2023-08-30T05:56:22;8.87;;;4.57;;
4307;SDS011;2167;53.448;9.984;2023-08-30T05:58:48;7.07;;;5.60;;
4307;SDS011;2167;53.448;9.984;2023-08-30T06:01:17;8.73;;;5.60;;
4307;SDS011;2167;53.448;9.984;2023-08-30T06:03:43;7.60;;;5.37;;
4307;SDS011;2167;53.448;9.984;2023-08-30T06:06:10;10.23;;;5.43;;
4307;SDS011;2167;53.448;9.984;2023-08-30T06:08:36;6.60;;;4.63;;
4307;SDS011;2167;53.448;9.984;2023-08-30T06:11:02;8.63;;;5.23;;
4307;SDS011;2167;53.448;9.984;2023-08-30T06:13:28;10.30;;;5.27;;
4307;SDS011;2167;53.448;9.984;2023-08-30T06:15:54;12.60;;;5.13;;
4307;SDS011;2167;53.448;9.984;2023-08-30T06:18:20;7.23;;;5.33;;
4307;SDS011;2167;53.448;9.984;2023-08-30T06:20:46;8.13;;;5.60;;
4307;SDS011;2167;53.448;9.984;2023-08-30T06:23:13;10.57;;;5.93;;
4307;SDS011;2167;53.448;9.984;2023-08-30T06:25:39;11.13;;;5.10;;
4307;SDS011;2167;53.448;9.984;2023-08-30T06:28:05;7.00;;;5.23;;
4307;SDS011;2167;53.448;9.984;2023-08-30T06:30:31;10.93;;;5.93;;
4307;SDS011;2167;53.448;9.984;2023-08-30T06:32:57;7.43;;;4.70;;
4307;SDS011;2167;53.448;9.984;2023-08-30T06:35:23;5.30;;;4.60;;
4307;SDS011;2167;53.448;9.984;2023-08-30T06:37:49;6.30;;;5.20;;
4307;SDS011;2167;53.448;9.984;2023-08-30T06:40:16;10.67;;;5.73;;
4307;SDS011;2167;53.448;9.984;2023-08-30T06:42:42;6.60;;;5.60;;
4307;SDS011;2167;53.448;9.984;2023-08-30T06:45:08;8.03;;;5.60;;
4307;SDS011;2167;53.448;9.984;2023-08-30T06:47:34;8.50;;;6.60;;
4307;SDS011;2167;53.448;9.984;2023-08-30T06:50:00;9.13;;;6.80;;
4307;SDS011;2167;53.448;9.984;2023-08-30T06:52:26;7.13;;;5.90;;
4307;SDS011;2167;53.448;9.984;2023-08-30T06:54:52;7.07;;;5.47;;
4307;SDS011;2167;53.448;9.984;2023-08-30T06:57:19;9.80;;;6.17;;
4307;SDS011;2167;53.448;9.984;2023-08-30T06:59:46;8.67;;;6.30;;
4307;SDS011;2167;53.448;9.984;2023-08-30T07:02:12;8.73;;;6.43;;
4307;SDS011;2167;53.448;9.984;2023-08-30T07:04:39;7.33;;;6.17;;
4307;SDS011;2167;53.448;9.984;2023-08-30T07:07:05;8.73;;;5.77;;
4307;SDS011;2167;53.448;9.984;2023-08-30T07:09:31;7.93;;;6.00;;
4307;SDS011;2167;53.448;9.984;2023-08-30T07:11:58;9.50;;;5.57;;
4307;SDS011;2167;53.448;9.984;2023-08-30T07:14:24;8.10;;;5.50;;
4307;SDS011;2167;53.448;9.984;2023-08-30T07:16:51;10.57;;;6.20;;
4307;SDS011;2167;53.448;9.984;2023-08-30T07:19:17;6.00;;;5.13;;
4307;SDS011;2167;53.448;9.984;2023-08-30T07:21:43;7.53;;;6.33;;
4307;SDS011;2167;53.448;9.984;2023-08-30T07:24:09;10.47;;;6.87;;
4307;SDS011;2167;53.448;9.984;2023-08-30T07:26:35;9.47;;;6.90;;
4307;SDS011;2167;53.448;9.984;2023-08-30T07:29:02;9.80;;;7.27;;
4307;SDS011;2167;53.448;9.984;2023-08-30T07:31:30;12.83;;;7.80;;
4307;SDS011;2167;53.448;9.984;2023-08-30T07:33:56;10.17;;;7.73;;
4307;SDS011;2167;53.448;9.984;2023-08-30T07:36:23;12.80;;;8.03;;
4307;SDS011;2167;53.448;9.984;2023-08-30T07:38:49;13.63;;;7.70;;
4307;SDS011;2167;53.448;9.984;2023-08-30T07:41:15;13.20;;;9.10;;
4307;SDS011;2167;53.448;9.984;2023-08-30T07:43:41;10.87;;;7.03;;
4307;SDS011;2167;53.448;9.984;2023-08-30T07:46:07;12.80;;;7.83;;
4307;SDS011;2167;53.448;9.984;2023-08-30T07:48:33;14.70;;;8.50;;
4307;SDS011;2167;53.448;9.984;2023-08-30T07:50:59;12.00;;;7.93;;
4307;SDS011;2167;53.448;9.984;2023-08-30T07:53:25;14.10;;;8.10;;
4307;SDS011;2167;53.448;9.984;2023-08-30T07:55:51;14.80;;;8.17;;
4307;SDS011;2167;53.448;9.984;2023-08-30T07:58:17;15.63;;;8.50;;
4307;SDS011;2167;53.448;9.984;2023-08-30T08:00:43;15.53;;;8.43;;
4307;SDS011;2167;53.448;9.984;2023-08-30T08:03:09;13.77;;;8.43;;
4307;SDS011;2167;53.448;9.984;2023-08-30T08:05:36;11.20;;;7.50;;
4307;SDS011;2167;53.448;9.984;2023-08-30T08:08:02;16.07;;;8.77;;
4307;SDS011;2167;53.448;9.984;2023-08-30T08:10:31;11.00;;;7.70;;
4307;SDS011;2167;53.448;9.984;2023-08-30T08:12:58;12.90;;;8.27;;
4307;SDS011;2167;53.448;9.984;2023-08-30T08:15:24;12.77;;;8.37;;
4307;SDS011;2167;53.448;9.984;2023-08-30T08:17:50;9.87;;;7.47;;
4307;SDS011;2167;53.448;9.984;2023-08-30T08:20:16;10.20;;;7.50;;
4307;SDS011;2167;53.448;9.984;2023-08-30T08:22:42;10.60;;;7.30;;
4307;SDS011;2167;53.448;9.984;2023-08-30T08:25:08;10.87;;;7.07;;
4307;SDS011;2167;53.448;9.984;2023-08-30T08:27:35;10.27;;;7.77;;
4307;SDS011;2167;53.448;9.984;2023-08-30T08:30:01;11.10;;;7.73;;
4307;SDS011;2167;53.448;9.984;2023-08-30T08:32:28;11.77;;;6.83;;
4307;SDS011;2167;53.448;9.984;2023-08-30T08:34:56;12.10;;;6.80;;
4307;SDS011;2167;53.448;9.984;2023-08-30T08:37:22;9.83;;;6.40;;
4307;SDS011;2167;53.448;9.984;2023-08-30T08:39:48;11.70;;;7.80;;
4307;SDS011;2167;53.448;9.984;2023-08-30T08:42:18;11.60;;;7.43;;
4307;SDS011;2167;53.448;9.984;2023-08-30T08:44:47;13.40;;;6.40;;
4307;SDS011;2167;53.448;9.984;2023-08-30T08:47:14;11.53;;;6.30;;
4307;SDS011;2167;53.448;9.984;2023-08-30T08:49:40;10.20;;;6.10;;
4307;SDS011;2167;53.448;9.984;2023-08-30T08:52:08;8.53;;;5.77;;
4307;SDS011;2167;53.448;9.984;2023-08-30T08:54:34;10.50;;;6.33;;
4307;SDS011;2167;53.448;9.984;2023-08-30T08:57:00;10.97;;;5.70;;
4307;SDS011;2167;53.448;9.984;2023-08-30T08:59:27;9.63;;;6.50;;
4307;SDS011;2167;53.448;9.984;2023-08-30T09:01:53;6.00;;;4.60;;
4307;SDS011;2167;53.448;9.984;2023-08-30T09:04:19;9.90;;;5.60;;
4307;SDS011;2167;53.448;9.984;2023-08-30T09:06:45;9.50;;;6.00;;
4307;SDS011;2167;53.448;9.984;2023-08-30T09:09:12;7.53;;;5.47;;
4307;SDS011;2167;53.448;9.984;2023-08-30T09:11:38;8.60;;;5.13;;
4307;SDS011;2167;53.448;9.984;2023-08-30T09:14:08;7.03;;;4.40;;
4307;SDS011;2167;53.448;9.984;2023-08-30T09:16:34;6.90;;;5.77;;
4307;SDS011;2167;53.448;9.984;2023-08-30T09:19:02;6.87;;;4.80;;
4307;SDS011;2167;53.448;9.984;2023-08-30T09:21:29;7.00;;;4.40;;
4307;SDS011;2167;53.448;9.984;2023-08-30T09:23:59;7.83;;;4.40;;
4307;SDS011;2167;53.448;9.984;2023-08-30T09:26:26;10.13;;;4.47;;
4307;SDS011;2167;53.448;9.984;2023-08-30T09:29:03;10.37;;;5.10;;
4307;SDS011;2167;53.448;9.984;2023-08-30T09:31:36;12.67;;;5.37;;
4307;SDS011;2167;53.448;9.984;2023-08-30T09:34:02;7.33;;;5.07;;
4307;SDS011;2167;53.448;9.984;2023-08-30T09:36:34;7.53;;;4.63;;
4307;SDS011;2167;53.448;9.984;2023-08-30T09:39:07;5.27;;;3.73;;
4307;SDS011;2167;53.448;9.984;2023-08-30T09:41:34;5.80;;;4.20;;
4307;SDS011;2167;53.448;9.984;2023-08-30T09:44:10;5.20;;;4.30;;
4307;SDS011;2167;53.448;9.984;2023-08-30T09:46:40;6.73;;;4.67;;
4307;SDS011;2167;53.448;9.984;2023-08-30T09:49:06;7.80;;;3.23;;
4307;SDS011;2167;53.448;9.984;2023-08-30T09:51:32;4.90;;;3.80;;
4307;SDS011;2167;53.448;9.984;2023-08-30T09:53:59;6.67;;;3.70;;
4307;SDS011;2167;53.448;9.984;2023-08-30T09:56:30;5.17;;;2.87;;
4307;SDS011;2167;53.448;9.984;2023-08-30T09:58:57;5.57;;;3.33;;
4307;SDS011;2167;53.448;9.984;2023-08-30T10:01:25;5.60;;;3.80;;
4307;SDS011;2167;53.448;9.984;2023-08-30T10:03:51;4.23;;;3.70;;
4307;SDS011;2167;53.448;9.984;2023-08-30T10:06:17;5.63;;;4.80;;
4307;SDS011;2167;53.448;9.984;2023-08-30T10:08:43;7.23;;;3.70;;
4307;SDS011;2167;53.448;9.984;2023-08-30T10:11:11;5.53;;;3.70;;
4307;SDS011;2167;53.448;9.984;2023-08-30T10:13:38;5.73;;;3.53;;
4307;SDS011;2167;53.448;9.984;2023-08-30T10:16:04;3.87;;;3.40;;
4307;SDS011;2167;53.448;9.984;2023-08-30T10:18:34;6.70;;;3.33;;
4307;SDS011;2167;53.448;9.984;2023-08-30T10:21:01;5.00;;;3.17;;
4307;SDS011;2167;53.448;9.984;2023-08-30T10:23:29;7.00;;;3.90;;
4307;SDS011;2167;53.448;9.984;2023-08-30T10:25:56;8.93;;;4.77;;
4307;SDS011;2167;53.448;9.984;2023-08-30T10:28:22;5.90;;;3.77;;
4307;SDS011;2167;53.448;9.984;2023-08-30T10:30:48;5.53;;;3.50;;
4307;SDS011;2167;53.448;9.984;2023-08-30T10:33:14;6.67;;;3.63;;
4307;SDS011;2167;53.448;9.984;2023-08-30T10:35:46;7.37;;;3.50;;
4307;SDS011;2167;53.448;9.984;2023-08-30T10:38:13;5.27;;;3.30;;
4307;SDS011;2167;53.448;9.984;2023-08-30T10:40:50;9.53;;;3.57;;
4307;SDS011;2167;53.448;9.984;2023-08-30T10:43:16;2.73;;;2.50;;
4307;SDS011;2167;53.448;9.984;2023-08-30T10:45:42;5.50;;;3.40;;
4307;SDS011;2167;53.448;9.984;2023-08-30T10:48:10;3.97;;;3.50;;
4307;SDS011;2167;53.448;9.984;2023-08-30T10:50:36;3.47;;;2.80;;
4307;SDS011;2167;53.448;9.984;2023-08-30T10:53:02;6.10;;;3.10;;
4307;SDS011;2167;53.448;9.984;2023-08-30T10:55:30;2.80;;;2.60;;
4307;SDS011;2167;53.448;9.984;2023-08-30T10:58:03;2.93;;;2.60;;
4307;SDS011;2167;53.448;9.984;2023-08-30T11:00:32;3.50;;;2.67;;
4307;SDS011;2167;53.448;9.984;2023-08-30T11:02:58;4.10;;;3.30;;
4307;SDS011;2167;53.448;9.984;2023-08-30T11:05:25;4.70;;;3.20;;
4307;SDS011;2167;53.448;9.984;2023-08-30T11:07:51;3.60;;;2.50;;
4307;SDS011;2167;53.448;9.984;2023-08-30T11:10:18;5.60;;;3.23;;
4307;SDS011;2167;53.448;9.984;2023-08-30T11:12:45;4.43;;;2.87;;
4307;SDS011;2167;53.448;9.984;2023-08-30T11:15:12;5.27;;;3.40;;
4307;SDS011;2167;53.448;9.984;2023-08-30T11:17:39;4.33;;;3.53;;
4307;SDS011;2167;53.448;9.984;2023-08-30T11:20:15;10.20;;;3.77;;
4307;SDS011;2167;53.448;9.984;2023-08-30T11:22:45;6.50;;;3.40;;
4307;SDS011;2167;53.448;9.984;2023-08-30T11:25:12;4.50;;;2.50;;
4307;SDS011;2167;53.448;9.984;2023-08-30T11:27:38;4.17;;;2.57;;
4307;SDS011;2167;53.448;9.984;2023-08-30T11:30:05;5.33;;;3.20;;
4307;SDS011;2167;53.448;9.984;2023-08-30T11:32:36;5.40;;;3.20;;
4307;SDS011;2167;53.448;9.984;2023-08-30T11:35:02;4.20;;;2.73;;
4307;SDS011;2167;53.448;9.984;2023-08-30T11:37:29;8.77;;;3.10;;
4307;SDS011;2167;53.448;9.984;2023-08-30T11:39:55;10.03;;;3.70;;
4307;SDS011;2167;53.448;9.984;2023-08-30T11:42:21;3.27;;;2.97;;
4307;SDS011;2167;53.448;9.984;2023-08-30T11:44:47;8.13;;;3.57;;
4307;SDS011;2167;53.448;9.984;2023-08-30T11:47:24;6.03;;;3.93;;
4307;SDS011;2167;53.448;9.984;2023-08-30T11:49:57;4.73;;;4.07;;
4307;SDS011;2167;53.448;9.984;2023-08-30T11:52:25;6.30;;;3.43;;
4307;SDS011;2167;53.448;9.984;2023-08-30T11:54:51;6.43;;;3.50;;
4307;SDS011;2167;53.448;9.984;2023-08-30T11:57:17;3.73;;;3.23;;
4307;SDS011;2167;53.448;9.984;2023-08-30T11:59:43;6.93;;;3.37;;
4307;SDS011;2167;53.448;9.984;2023-08-30T12:02:11;5.10;;;3.70;;
4307;SDS011;2167;53.448;9.984;2023-08-30T12:04:41;4.93;;;3.60;;
4307;SDS011;2167;53.448;9.984;2023-08-30T12:07:08;6.97;;;3.50;;
4307;SDS011;2167;53.448;9.984;2023-08-30T12:09:34;6.10;;;3.83;;
4307;SDS011;2167;53.448;9.984;2023-08-30T12:12:09;5.17;;;2.77;;
4307;SDS011;2167;53.448;9.984;2023-08-30T12:14:38;7.77;;;2.80;;
4307;SDS011;2167;53.448;9.984;2023-08-30T12:17:04;5.63;;;4.17;;
4307;SDS011;2167;53.448;9.984;2023-08-30T12:19:33;6.13;;;3.40;;
4307;SDS011;2167;53.448;9.984;2023-08-30T12:22:03;5.80;;;3.43;;
4307;SDS011;2167;53.448;9.984;2023-08-30T12:24:39;8.27;;;4.10;;
4307;SDS011;2167;53.448;9.984;2023-08-30T12:27:05;4.20;;;2.83;;
4307;SDS011;2167;53.448;9.984;2023-08-30T12:29:31;5.37;;;3.30;;
4307;SDS011;2167;53.448;9.984;2023-08-30T12:31:58;5.97;;;3.30;;
4307;SDS011;2167;53.448;9.984;2023-08-30T12:34:24;4.40;;;2.80;;
4307;SDS011;2167;53.448;9.984;2023-08-30T12:36:50;2.97;;;2.60;;
4307;SDS011;2167;53.448;9.984;2023-08-30T12:39:15;7.63;;;3.37;;
4307;SDS011;2167;53.448;9.984;2023-08-30T12:41:41;5.10;;;3.10;;
4307;SDS011;2167;53.448;9.984;2023-08-30T12:44:08;3.03;;;2.77;;
4307;SDS011;2167;53.448;9.984;2023-08-30T12:46:34;3.10;;;2.50;;
4307;SDS011;2167;53.448;9.984;2023-08-30T12:49:00;10.10;;;3.20;;
4307;SDS011;2167;53.448;9.984;2023-08-30T12:51:25;4.10;;;3.30;;
4307;SDS011;2167;53.448;9.984;2023-08-30T12:53:51;4.37;;;3.10;;
4307;SDS011;2167;53.448;9.984;2023-08-30T12:56:21;6.00;;;3.67;;
4307;SDS011;2167;53.448;9.984;2023-08-30T12:58:47;7.13;;;3.70;;
4307;SDS011;2167;53.448;9.984;2023-08-30T13:01:13;4.27;;;3.17;;
4307;SDS011;2167;53.448;9.984;2023-08-30T13:03:39;2.90;;;2.60;;
4307;SDS011;2167;53.448;9.984;2023-08-30T13:06:05;4.50;;;3.37;;
4307;SDS011;2167;53.448;9.984;2023-08-30T13:08:31;5.90;;;2.93;;
4307;SDS011;2167;53.448;9.984;2023-08-30T13:10:59;4.27;;;3.13;;
4307;SDS011;2167;53.448;9.984;2023-08-30T13:13:25;7.20;;;3.20;;
4307;SDS011;2167;53.448;9.984;2023-08-30T13:15:51;3.60;;;3.23;;
4307;SDS011;2167;53.448;9.984;2023-08-30T13:18:17;3.17;;;2.87;;
4307;SDS011;2167;53.448;9.984;2023-08-30T13:20:44;4.37;;;3.53;;
4307;SDS011;2167;53.448;9.984;2023-08-30T13:23:10;7.90;;;3.87;;
4307;SDS011;2167;53.448;9.984;2023-08-30T13:25:40;5.23;;;3.03;;
4307;SDS011;2167;53.448;9.984;2023-08-30T13:28:06;7.00;;;3.63;;
4307;SDS011;2167;53.448;9.984;2023-08-30T13:30:32;7.13;;;3.80;;
4307;SDS011;2167;53.448;9.984;2023-08-30T13:32:58;3.53;;;2.73;;
4307;SDS011;2167;53.448;9.984;2023-08-30T13:35:24;4.80;;;4.13;;
4307;SDS011;2167;53.448;9.984;2023-08-30T13:37:50;4.83;;;3.00;;
4307;SDS011;2167;53.448;9.984;2023-08-30T13:40:16;4.43;;;3.47;;
4307;SDS011;2167;53.448;9.984;2023-08-30T13:42:42;6.90;;;2.90;;
4307;SDS011;2167;53.448;9.984;2023-08-30T13:45:08;4.50;;;3.10;;
4307;SDS011;2167;53.448;9.984;2023-08-30T13:47:39;3.50;;;3.00;;
4307;SDS011;2167;53.448;9.984;2023-08-30T13:50:05;3.33;;;2.77;;
4307;SDS011;2167;53.448;9.984;2023-08-30T13:52:31;5.80;;;3.33;;
4307;SDS011;2167;53.448;9.984;2023-08-30T13:54:58;2.60;;;2.40;;
4307;SDS011;2167;53.448;9.984;2023-08-30T13:57:24;2.80;;;2.50;;
4307;SDS011;2167;53.448;9.984;2023-08-30T13:59:50;3.00;;;2.57;;
4307;SDS011;2167;53.448;9.984;2023-08-30T14:02:15;6.10;;;2.90;;
4307;SDS011;2167;53.448;9.984;2023-08-30T14:04:41;4.53;;;2.80;;
4307;SDS011;2167;53.448;9.984;2023-08-30T14:07:08;5.50;;;3.27;;
4307;SDS011;2167;53.448;9.984;2023-08-30T14:09:35;3.90;;;3.10;;
4307;SDS011;2167;53.448;9.984;2023-08-30T14:12:01;3.43;;;2.73;;
4307;SDS011;2167;53.448;9.984;2023-08-30T14:14:28;4.13;;;2.50;;
4307;SDS011;2167;53.448;9.984;2023-08-30T14:16:57;5.00;;;2.53;;
4307;SDS011;2167;53.448;9.984;2023-08-30T14:19:23;5.70;;;3.13;;
4307;SDS011;2167;53.448;9.984;2023-08-30T14:21:49;3.80;;;2.40;;
4307;SDS011;2167;53.448;9.984;2023-08-30T14:24:19;3.93;;;3.10;;
4307;SDS011;2167;53.448;9.984;2023-08-30T14:26:45;3.43;;;2.43;;
4307;SDS011;2167;53.448;9.984;2023-08-30T14:29:11;3.20;;;2.60;;
4307;SDS011;2167;53.448;9.984;2023-08-30T14:31:37;4.37;;;3.10;;
4307;SDS011;2167;53.448;9.984;2023-08-30T14:34:03;4.13;;;2.97;;
4307;SDS011;2167;53.448;9.984;2023-08-30T14:36:29;6.83;;;2.87;;
4307;SDS011;2167;53.448;9.984;2023-08-30T14:38:55;6.40;;;2.87;;
4307;SDS011;2167;53.448;9.984;2023-08-30T14:41:21;4.43;;;3.13;;
4307;SDS011;2167;53.448;9.984;2023-08-30T14:43:57;3.77;;;2.87;;
4307;SDS011;2167;53.448;9.984;2023-08-30T14:46:23;3.30;;;2.43;;
4307;SDS011;2167;53.448;9.984;2023-08-30T14:48:49;3.90;;;2.60;;
4307;SDS011;2167;53.448;9.984;2023-08-30T14:51:15;3.70;;;2.80;;
4307;SDS011;2167;53.448;9.984;2023-08-30T14:53:41;3.20;;;2.73;;
4307;SDS011;2167;53.448;9.984;2023-08-30T14:56:07;5.67;;;3.83;;
4307;SDS011;2167;53.448;9.984;2023-08-30T14:58:33;3.63;;;2.83;;
4307;SDS011;2167;53.448;9.984;2023-08-30T15:01:00;4.03;;;3.17;;
4307;SDS011;2167;53.448;9.984;2023-08-30T15:03:26;4.30;;;2.40;;
4307;SDS011;2167;53.448;9.984;2023-08-30T15:05:52;7.20;;;3.83;;
4307;SDS011;2167;53.448;9.984;2023-08-30T15:08:19;7.60;;;3.23;;
4307;SDS011;2167;53.448;9.984;2023-08-30T15:10:45;5.60;;;3.27;;
4307;SDS011;2167;53.448;9.984;2023-08-30T15:13:11;5.13;;;2.80;;
4307;SDS011;2167;53.448;9.984;2023-08-30T15:15:39;5.40;;;2.67;;
4307;SDS011;2167;53.448;9.984;2023-08-30T15:18:05;5.23;;;2.70;;
4307;SDS011;2167;53.448;9.984;2023-08-30T15:20:31;3.97;;;2.73;;